sensor_id;sensor_type;location;lat;lon;timestamp;pressure;altitude;pressure_sealevel;temperature
33267;BMP180;19638;49.080;11.896;2023-03-21T00:01:24;96474.00;;;8.50
33267;BMP180;19638;49.080;11.896;2023-03-21T00:05:28;96470.00;;;8.50
33267;BMP180;19638;49.080;11.896;2023-03-21T00:09:31;96470.00;;;8.40
33267;BMP180;19638;49.080;11.896;2023-03-21T00:13:42;96469.00;;;8.30
33267;BMP180;19638;49.080;11.896;2023-03-21T00:17:55;96470.00;;;8.30
33267;BMP180;19638;49.080;11.896;2023-03-21T00:22:05;96460.00;;;8.30
33267;BMP180;19638;49.080;11.896;2023-03-21T00:26:09;96460.00;;;8.20
33267;BMP180;19638;49.080;11.896;2023-03-21T00:30:15;96455.00;;;8.10
33267;BMP180;19638;49.080;11.896;2023-03-21T00:34:18;96442.00;;;8.00
33267;BMP180;19638;49.080;11.896;2023-03-21T00:38:42;96450.00;;;7.90
33267;BMP180;19638;49.080;11.896;2023-03-21T00:42:45;96448.00;;;7.80
33267;BMP180;19638;49.080;11.896;2023-03-21T00:46:49;96444.00;;;7.80
33267;BMP180;19638;49.080;11.896;2023-03-21T00:51:11;96438.00;;;7.80
33267;BMP180;19638;49.080;11.896;2023-03-21T00:55:17;96432.00;;;7.70
33267;BMP180;19638;49.080;11.896;2023-03-21T00:59:20;96431.00;;;7.80
33267;BMP180;19638;49.080;11.896;2023-03-21T01:03:25;96428.00;;;7.80
33267;BMP180;19638;49.080;11.896;2023-03-21T01:07:31;96428.00;;;7.90
33267;BMP180;19638;49.080;11.896;2023-03-21T01:11:34;96426.00;;;7.90
33267;BMP180;19638;49.080;11.896;2023-03-21T01:15:42;96425.00;;;8.00
33267;BMP180;19638;49.080;11.896;2023-03-21T01:19:49;96421.00;;;8.00
33267;BMP180;19638;49.080;11.896;2023-03-21T01:23:55;96424.00;;;8.10
33267;BMP180;19638;49.080;11.896;2023-03-21T01:28:03;96428.00;;;8.10
33267;BMP180;19638;49.080;11.896;2023-03-21T01:32:09;96423.00;;;8.10
33267;BMP180;19638;49.080;11.896;2023-03-21T01:36:17;96424.00;;;8.10
33267;BMP180;19638;49.080;11.896;2023-03-21T01:40:35;96419.00;;;8.20
33267;BMP180;19638;49.080;11.896;2023-03-21T01:44:52;96419.00;;;8.20
33267;BMP180;19638;49.080;11.896;2023-03-21T01:49:01;96418.00;;;8.30
33267;BMP180;19638;49.080;11.896;2023-03-21T01:53:06;96419.00;;;8.30
33267;BMP180;19638;49.080;11.896;2023-03-21T01:57:16;96421.00;;;8.30
33267;BMP180;19638;49.080;11.896;2023-03-21T02:01:28;96409.00;;;8.30
33267;BMP180;19638;49.080;11.896;2023-03-21T02:05:46;96415.00;;;8.30
33267;BMP180;19638;49.080;11.896;2023-03-21T02:09:52;96419.00;;;8.30
33267;BMP180;19638;49.080;11.896;2023-03-21T02:13:55;96407.00;;;8.20
33267;BMP180;19638;49.080;11.896;2023-03-21T02:18:12;96396.00;;;8.10
33267;BMP180;19638;49.080;11.896;2023-03-21T02:27:01;96399.00;;;7.90
33267;BMP180;19638;49.080;11.896;2023-03-21T02:31:20;96397.00;;;7.80
33267;BMP180;19638;49.080;11.896;2023-03-21T02:35:35;96394.00;;;7.80
33267;BMP180;19638;49.080;11.896;2023-03-21T02:40:02;96392.00;;;7.80
33267;BMP180;19638;49.080;11.896;2023-03-21T02:44:18;96389.00;;;7.70
33267;BMP180;19638;49.080;11.896;2023-03-21T02:48:25;96384.00;;;7.60
33267;BMP180;19638;49.080;11.896;2023-03-21T02:52:47;96387.00;;;7.40
33267;BMP180;19638;49.080;11.896;2023-03-21T02:56:59;96386.00;;;7.30
33267;BMP180;19638;49.080;11.896;2023-03-21T03:01:07;96389.00;;;7.20
33267;BMP180;19638;49.080;11.896;2023-03-21T03:05:17;96392.00;;;7.20
33267;BMP180;19638;49.080;11.896;2023-03-21T03:09:32;96394.00;;;7.20
33267;BMP180;19638;49.080;11.896;2023-03-21T03:13:52;96391.00;;;7.30
33267;BMP180;19638;49.080;11.896;2023-03-21T03:18:09;96384.00;;;7.40
33267;BMP180;19638;49.080;11.896;2023-03-21T03:22:22;96383.00;;;7.50
33267;BMP180;19638;49.080;11.896;2023-03-21T03:26:30;96386.00;;;7.50
33267;BMP180;19638;49.080;11.896;2023-03-21T03:30:39;96391.00;;;7.60
33267;BMP180;19638;49.080;11.896;2023-03-21T03:35:02;96388.00;;;7.60
33267;BMP180;19638;49.080;11.896;2023-03-21T03:39:10;96389.00;;;7.70
33267;BMP180;19638;49.080;11.896;2023-03-21T03:43:15;96391.00;;;7.70
33267;BMP180;19638;49.080;11.896;2023-03-21T03:47:25;96387.00;;;7.80
33267;BMP180;19638;49.080;11.896;2023-03-21T03:51:49;96389.00;;;7.80
33267;BMP180;19638;49.080;11.896;2023-03-21T03:55:54;96382.00;;;7.80
33267;BMP180;19638;49.080;11.896;2023-03-21T04:00:00;96381.00;;;7.90
33267;BMP180;19638;49.080;11.896;2023-03-21T04:04:06;96372.00;;;7.90
33267;BMP180;19638;49.080;11.896;2023-03-21T04:08:17;96377.00;;;7.90
33267;BMP180;19638;49.080;11.896;2023-03-21T04:12:20;96375.00;;;7.90
33267;BMP180;19638;49.080;11.896;2023-03-21T04:16:23;96376.00;;;8.00
33267;BMP180;19638;49.080;11.896;2023-03-21T04:20:28;96376.00;;;8.10
33267;BMP180;19638;49.080;11.896;2023-03-21T04:24:38;96377.00;;;8.10
33267;BMP180;19638;49.080;11.896;2023-03-21T04:28:43;96378.00;;;8.20
33267;BMP180;19638;49.080;11.896;2023-03-21T04:32:53;96375.00;;;8.20
33267;BMP180;19638;49.080;11.896;2023-03-21T04:37:01;96377.00;;;8.20
33267;BMP180;19638;49.080;11.896;2023-03-21T04:41:18;96376.00;;;8.20
33267;BMP180;19638;49.080;11.896;2023-03-21T04:45:25;96389.00;;;8.20
33267;BMP180;19638;49.080;11.896;2023-03-21T04:49:29;96382.00;;;8.20
33267;BMP180;19638;49.080;11.896;2023-03-21T04:53:34;96378.00;;;8.20
33267;BMP180;19638;49.080;11.896;2023-03-21T04:57:39;96379.00;;;8.20
33267;BMP180;19638;49.080;11.896;2023-03-21T05:01:44;96376.00;;;8.10
33267;BMP180;19638;49.080;11.896;2023-03-21T05:05:50;96375.00;;;8.10
33267;BMP180;19638;49.080;11.896;2023-03-21T05:09:55;96375.00;;;8.10
33267;BMP180;19638;49.080;11.896;2023-03-21T05:14:03;96373.00;;;8.10
33267;BMP180;19638;49.080;11.896;2023-03-21T05:18:07;96372.00;;;8.10
33267;BMP180;19638;49.080;11.896;2023-03-21T05:22:18;96376.00;;;8.20
33267;BMP180;19638;49.080;11.896;2023-03-21T05:26:23;96384.00;;;8.30
33267;BMP180;19638;49.080;11.896;2023-03-21T05:30:27;96370.00;;;8.30
33267;BMP180;19638;49.080;11.896;2023-03-21T05:34:37;96379.00;;;8.40
33267;BMP180;19638;49.080;11.896;2023-03-21T05:38:40;96373.00;;;8.40
33267;BMP180;19638;49.080;11.896;2023-03-21T05:42:48;96386.00;;;8.50
33267;BMP180;19638;49.080;11.896;2023-03-21T05:46:51;96377.00;;;8.70
33267;BMP180;19638;49.080;11.896;2023-03-21T05:50:55;96382.00;;;8.80
33267;BMP180;19638;49.080;11.896;2023-03-21T05:55:01;96390.00;;;8.80
33267;BMP180;19638;49.080;11.896;2023-03-21T05:59:06;96392.00;;;8.90
33267;BMP180;19638;49.080;11.896;2023-03-21T06:03:09;96392.00;;;9.00
33267;BMP180;19638;49.080;11.896;2023-03-21T06:07:29;96388.00;;;9.10
33267;BMP180;19638;49.080;11.896;2023-03-21T06:11:34;96391.00;;;9.40
33267;BMP180;19638;49.080;11.896;2023-03-21T06:15:39;96404.00;;;9.70
33267;BMP180;19638;49.080;11.896;2023-03-21T06:19:46;96405.00;;;10.00
33267;BMP180;19638;49.080;11.896;2023-03-21T06:23:49;96405.00;;;10.20
33267;BMP180;19638;49.080;11.896;2023-03-21T06:27:56;96409.00;;;10.50
33267;BMP180;19638;49.080;11.896;2023-03-21T06:32:03;96402.00;;;10.70
33267;BMP180;19638;49.080;11.896;2023-03-21T06:36:08;96400.00;;;10.90
33267;BMP180;19638;49.080;11.896;2023-03-21T06:40:12;96412.00;;;11.00
33267;BMP180;19638;49.080;11.896;2023-03-21T06:44:22;96415.00;;;11.10
33267;BMP180;19638;49.080;11.896;2023-03-21T06:48:34;96409.00;;;11.20
33267;BMP180;19638;49.080;11.896;2023-03-21T06:52:38;96413.00;;;11.40
33267;BMP180;19638;49.080;11.896;2023-03-21T06:56:41;96413.00;;;11.60
33267;BMP180;19638;49.080;11.896;2023-03-21T07:00:44;96419.00;;;11.80
33267;BMP180;19638;49.080;11.896;2023-03-21T07:04:49;96428.00;;;11.90
33267;BMP180;19638;49.080;11.896;2023-03-21T07:08:55;96434.00;;;12.00
33267;BMP180;19638;49.080;11.896;2023-03-21T07:12:59;96426.00;;;12.20
33267;BMP180;19638;49.080;11.896;2023-03-21T07:17:08;96426.00;;;12.30
33267;BMP180;19638;49.080;11.896;2023-03-21T07:21:13;96418.00;;;12.50
33267;BMP180;19638;49.080;11.896;2023-03-21T07:25:19;96427.00;;;12.80
33267;BMP180;19638;49.080;11.896;2023-03-21T07:29:27;96424.00;;;13.00
33267;BMP180;19638;49.080;11.896;2023-03-21T07:33:31;96422.00;;;13.30
33267;BMP180;19638;49.080;11.896;2023-03-21T07:37:39;96419.00;;;13.50
33267;BMP180;19638;49.080;11.896;2023-03-21T07:41:42;96421.00;;;13.40
33267;BMP180;19638;49.080;11.896;2023-03-21T07:45:47;96416.00;;;13.40
33267;BMP180;19638;49.080;11.896;2023-03-21T07:49:50;96416.00;;;13.40
33267;BMP180;19638;49.080;11.896;2023-03-21T07:53:54;96416.00;;;13.40
33267;BMP180;19638;49.080;11.896;2023-03-21T07:57:57;96418.00;;;13.60
33267;BMP180;19638;49.080;11.896;2023-03-21T08:02:01;96418.00;;;13.80
33267;BMP180;19638;49.080;11.896;2023-03-21T08:06:07;96415.00;;;13.90
33267;BMP180;19638;49.080;11.896;2023-03-21T08:10:12;96418.00;;;14.10
33267;BMP180;19638;49.080;11.896;2023-03-21T08:14:17;96417.00;;;14.20
33267;BMP180;19638;49.080;11.896;2023-03-21T08:18:20;96422.00;;;14.40
33267;BMP180;19638;49.080;11.896;2023-03-21T08:22:23;96425.00;;;14.60
33267;BMP180;19638;49.080;11.896;2023-03-21T08:26:31;96422.00;;;14.60
33267;BMP180;19638;49.080;11.896;2023-03-21T08:30:34;96422.00;;;14.70
33267;BMP180;19638;49.080;11.896;2023-03-21T08:34:41;96417.00;;;14.50
33267;BMP180;19638;49.080;11.896;2023-03-21T08:38:47;96414.00;;;14.30
33267;BMP180;19638;49.080;11.896;2023-03-21T08:43:01;96413.00;;;14.10
33267;BMP180;19638;49.080;11.896;2023-03-21T08:47:08;96409.00;;;14.20
33267;BMP180;19638;49.080;11.896;2023-03-21T08:51:14;96416.00;;;14.20
33267;BMP180;19638;49.080;11.896;2023-03-21T08:55:18;96415.00;;;14.40
33267;BMP180;19638;49.080;11.896;2023-03-21T08:59:23;96418.00;;;14.70
33267;BMP180;19638;49.080;11.896;2023-03-21T09:03:26;96408.00;;;15.00
33267;BMP180;19638;49.080;11.896;2023-03-21T09:07:36;96406.00;;;15.20
33267;BMP180;19638;49.080;11.896;2023-03-21T09:11:41;96409.00;;;15.50
33267;BMP180;19638;49.080;11.896;2023-03-21T09:15:45;96401.00;;;15.80
33267;BMP180;19638;49.080;11.896;2023-03-21T09:19:49;96406.00;;;16.00
33267;BMP180;19638;49.080;11.896;2023-03-21T09:23:54;96400.00;;;16.60
33267;BMP180;19638;49.080;11.896;2023-03-21T09:28:00;96395.00;;;17.10
33267;BMP180;19638;49.080;11.896;2023-03-21T09:32:07;96401.00;;;17.70
33267;BMP180;19638;49.080;11.896;2023-03-21T09:36:10;96393.00;;;18.30
33267;BMP180;19638;49.080;11.896;2023-03-21T09:40:17;96401.00;;;18.30
33267;BMP180;19638;49.080;11.896;2023-03-21T09:44:29;96402.00;;;18.40
33267;BMP180;19638;49.080;11.896;2023-03-21T09:48:40;96406.00;;;18.50
33267;BMP180;19638;49.080;11.896;2023-03-21T09:52:59;96393.00;;;18.80
33267;BMP180;19638;49.080;11.896;2023-03-21T09:57:10;96397.00;;;19.30
33267;BMP180;19638;49.080;11.896;2023-03-21T10:01:25;96395.00;;;19.50
33267;BMP180;19638;49.080;11.896;2023-03-21T10:05:37;96393.00;;;19.30
33267;BMP180;19638;49.080;11.896;2023-03-21T10:09:47;96385.00;;;19.50
33267;BMP180;19638;49.080;11.896;2023-03-21T10:14:00;96383.00;;;19.50
33267;BMP180;19638;49.080;11.896;2023-03-21T10:18:06;96387.00;;;19.00
33267;BMP180;19638;49.080;11.896;2023-03-21T10:22:11;96388.00;;;18.60
33267;BMP180;19638;49.080;11.896;2023-03-21T10:26:15;96378.00;;;18.70
33267;BMP180;19638;49.080;11.896;2023-03-21T10:30:30;96375.00;;;18.60
33267;BMP180;19638;49.080;11.896;2023-03-21T10:34:41;96375.00;;;18.70
33267;BMP180;19638;49.080;11.896;2023-03-21T10:38:46;96372.00;;;18.30
33267;BMP180;19638;49.080;11.896;2023-03-21T10:42:53;96367.00;;;18.20
33267;BMP180;19638;49.080;11.896;2023-03-21T10:46:58;96367.00;;;18.20
33267;BMP180;19638;49.080;11.896;2023-03-21T10:51:07;96362.00;;;18.30
33267;BMP180;19638;49.080;11.896;2023-03-21T10:55:22;96351.00;;;18.30
33267;BMP180;19638;49.080;11.896;2023-03-21T10:59:27;96356.00;;;18.30
33267;BMP180;19638;49.080;11.896;2023-03-21T11:03:37;96358.00;;;18.10
33267;BMP180;19638;49.080;11.896;2023-03-21T11:07:47;96352.00;;;18.30
33267;BMP180;19638;49.080;11.896;2023-03-21T11:12:04;96357.00;;;18.40
33267;BMP180;19638;49.080;11.896;2023-03-21T11:16:21;96347.00;;;18.60
33267;BMP180;19638;49.080;11.896;2023-03-21T11:20:25;96338.00;;;18.70
33267;BMP180;19638;49.080;11.896;2023-03-21T11:24:32;96339.00;;;18.70
33267;BMP180;19638;49.080;11.896;2023-03-21T11:28:38;96333.00;;;18.70
33267;BMP180;19638;49.080;11.896;2023-03-21T11:32:50;96326.00;;;18.50
33267;BMP180;19638;49.080;11.896;2023-03-21T11:37:00;96323.00;;;18.60
33267;BMP180;19638;49.080;11.896;2023-03-21T11:41:05;96317.00;;;18.70
33267;BMP180;19638;49.080;11.896;2023-03-21T11:45:14;96309.00;;;18.60
33267;BMP180;19638;49.080;11.896;2023-03-21T11:49:19;96308.00;;;18.60
33267;BMP180;19638;49.080;11.896;2023-03-21T11:53:34;96301.00;;;18.80
33267;BMP180;19638;49.080;11.896;2023-03-21T11:57:45;96294.00;;;18.70
33267;BMP180;19638;49.080;11.896;2023-03-21T12:07:00;96278.00;;;18.50
33267;BMP180;19638;49.080;11.896;2023-03-21T12:11:12;96272.00;;;18.40
33267;BMP180;19638;49.080;11.896;2023-03-21T12:15:20;96257.00;;;18.30
33267;BMP180;19638;49.080;11.896;2023-03-21T12:19:47;96257.00;;;18.20
33267;BMP180;19638;49.080;11.896;2023-03-21T12:24:04;96255.00;;;18.10
33267;BMP180;19638;49.080;11.896;2023-03-21T12:28:25;96246.00;;;18.10
33267;BMP180;19638;49.080;11.896;2023-03-21T12:32:51;96237.00;;;18.10
33267;BMP180;19638;49.080;11.896;2023-03-21T12:37:07;96242.00;;;18.10
33267;BMP180;19638;49.080;11.896;2023-03-21T12:41:22;96248.00;;;18.20
33267;BMP180;19638;49.080;11.896;2023-03-21T12:45:30;96232.00;;;18.10
33267;BMP180;19638;49.080;11.896;2023-03-21T12:49:53;96233.00;;;18.00
33267;BMP180;19638;49.080;11.896;2023-03-21T12:54:13;96219.00;;;18.00
33267;BMP180;19638;49.080;11.896;2023-03-21T12:58:21;96219.00;;;18.00
33267;BMP180;19638;49.080;11.896;2023-03-21T13:02:29;96210.00;;;18.10
33267;BMP180;19638;49.080;11.896;2023-03-21T13:06:35;96219.00;;;18.20
33267;BMP180;19638;49.080;11.896;2023-03-21T13:10:43;96213.00;;;18.30
33267;BMP180;19638;49.080;11.896;2023-03-21T13:14:55;96212.00;;;18.20
33267;BMP180;19638;49.080;11.896;2023-03-21T13:19:13;96206.00;;;18.20
33267;BMP180;19638;49.080;11.896;2023-03-21T13:23:18;96198.00;;;18.40
33267;BMP180;19638;49.080;11.896;2023-03-21T13:27:29;96204.00;;;18.60
33267;BMP180;19638;49.080;11.896;2023-03-21T13:31:33;96196.00;;;18.70
33267;BMP180;19638;49.080;11.896;2023-03-21T13:35:59;96189.00;;;18.60
33267;BMP180;19638;49.080;11.896;2023-03-21T13:40:19;96180.00;;;18.70
33267;BMP180;19638;49.080;11.896;2023-03-21T13:44:31;96176.00;;;18.80
33267;BMP180;19638;49.080;11.896;2023-03-21T13:48:43;96165.00;;;18.90
33267;BMP180;19638;49.080;11.896;2023-03-21T13:53:24;96164.00;;;19.10
33267;BMP180;19638;49.080;11.896;2023-03-21T13:57:37;96160.00;;;19.30
33267;BMP180;19638;49.080;11.896;2023-03-21T14:01:59;96158.00;;;19.40
33267;BMP180;19638;49.080;11.896;2023-03-21T14:06:10;96160.00;;;19.60
33267;BMP180;19638;49.080;11.896;2023-03-21T14:10:19;96158.00;;;19.60
33267;BMP180;19638;49.080;11.896;2023-03-21T14:14:32;96157.00;;;19.40
33267;BMP180;19638;49.080;11.896;2023-03-21T14:18:43;96149.00;;;19.50
33267;BMP180;19638;49.080;11.896;2023-03-21T14:22:58;96154.00;;;19.80
33267;BMP180;19638;49.080;11.896;2023-03-21T14:27:02;96152.00;;;20.10
33267;BMP180;19638;49.080;11.896;2023-03-21T14:31:13;96150.00;;;20.30
33267;BMP180;19638;49.080;11.896;2023-03-21T14:35:19;96130.00;;;20.50
33267;BMP180;19638;49.080;11.896;2023-03-21T14:39:28;96132.00;;;20.30
33267;BMP180;19638;49.080;11.896;2023-03-21T14:43:33;96131.00;;;20.30
33267;BMP180;19638;49.080;11.896;2023-03-21T14:47:53;96140.00;;;20.50
33267;BMP180;19638;49.080;11.896;2023-03-21T14:52:01;96122.00;;;20.60
33267;BMP180;19638;49.080;11.896;2023-03-21T14:56:11;96127.00;;;20.40
33267;BMP180;19638;49.080;11.896;2023-03-21T15:00:24;96130.00;;;20.10
33267;BMP180;19638;49.080;11.896;2023-03-21T15:04:28;96127.00;;;20.00
33267;BMP180;19638;49.080;11.896;2023-03-21T15:08:34;96124.00;;;19.90
33267;BMP180;19638;49.080;11.896;2023-03-21T15:12:37;96127.00;;;19.80
33267;BMP180;19638;49.080;11.896;2023-03-21T15:16:51;96121.00;;;19.60
33267;BMP180;19638;49.080;11.896;2023-03-21T15:20:57;96119.00;;;19.50
33267;BMP180;19638;49.080;11.896;2023-03-21T15:25:10;96121.00;;;19.40
33267;BMP180;19638;49.080;11.896;2023-03-21T15:29:16;96123.00;;;19.30
33267;BMP180;19638;49.080;11.896;2023-03-21T15:33:22;96124.00;;;19.30
33267;BMP180;19638;49.080;11.896;2023-03-21T15:37:34;96113.00;;;19.20
33267;BMP180;19638;49.080;11.896;2023-03-21T15:41:40;96119.00;;;19.10
33267;BMP180;19638;49.080;11.896;2023-03-21T15:45:47;96112.00;;;19.00
33267;BMP180;19638;49.080;11.896;2023-03-21T15:49:53;96108.00;;;18.80
33267;BMP180;19638;49.080;11.896;2023-03-21T15:53:56;96112.00;;;18.70
33267;BMP180;19638;49.080;11.896;2023-03-21T15:58:12;96106.00;;;18.60
33267;BMP180;19638;49.080;11.896;2023-03-21T16:02:19;96108.00;;;18.50
33267;BMP180;19638;49.080;11.896;2023-03-21T16:06:30;96111.00;;;18.30
33267;BMP180;19638;49.080;11.896;2023-03-21T16:10:36;96105.00;;;18.10
33267;BMP180;19638;49.080;11.896;2023-03-21T16:14:43;96111.00;;;17.80
33267;BMP180;19638;49.080;11.896;2023-03-21T16:18:53;96115.00;;;17.70
33267;BMP180;19638;49.080;11.896;2023-03-21T16:22:58;96108.00;;;17.60
33267;BMP180;19638;49.080;11.896;2023-03-21T16:27:01;96108.00;;;17.50
33267;BMP180;19638;49.080;11.896;2023-03-21T16:31:12;96108.00;;;17.40
33267;BMP180;19638;49.080;11.896;2023-03-21T16:35:16;96110.00;;;17.20
33267;BMP180;19638;49.080;11.896;2023-03-21T16:39:21;96118.00;;;17.10
33267;BMP180;19638;49.080;11.896;2023-03-21T16:43:27;96115.00;;;17.00
33267;BMP180;19638;49.080;11.896;2023-03-21T16:47:35;96124.00;;;16.90
33267;BMP180;19638;49.080;11.896;2023-03-21T16:51:42;96124.00;;;16.90
33267;BMP180;19638;49.080;11.896;2023-03-21T16:55:46;96127.00;;;16.80
33267;BMP180;19638;49.080;11.896;2023-03-21T16:59:49;96123.00;;;16.60
33267;BMP180;19638;49.080;11.896;2023-03-21T17:03:55;96120.00;;;16.50
33267;BMP180;19638;49.080;11.896;2023-03-21T17:08:00;96126.00;;;16.40
33267;BMP180;19638;49.080;11.896;2023-03-21T17:12:12;96130.00;;;16.30
33267;BMP180;19638;49.080;11.896;2023-03-21T17:16:21;96131.00;;;16.20
33267;BMP180;19638;49.080;11.896;2023-03-21T17:20:31;96126.00;;;16.10
33267;BMP180;19638;49.080;11.896;2023-03-21T17:24:35;96137.00;;;16.00
33267;BMP180;19638;49.080;11.896;2023-03-21T17:28:41;96134.00;;;15.90
33267;BMP180;19638;49.080;11.896;2023-03-21T17:32:48;96145.00;;;15.70
33267;BMP180;19638;49.080;11.896;2023-03-21T17:36:55;96146.00;;;15.60
33267;BMP180;19638;49.080;11.896;2023-03-21T17:41:00;96141.00;;;15.40
33267;BMP180;19638;49.080;11.896;2023-03-21T17:45:08;96141.00;;;15.30
33267;BMP180;19638;49.080;11.896;2023-03-21T17:49:13;96137.00;;;15.10
33267;BMP180;19638;49.080;11.896;2023-03-21T17:53:21;96143.00;;;14.90
33267;BMP180;19638;49.080;11.896;2023-03-21T17:57:28;96145.00;;;14.70
33267;BMP180;19638;49.080;11.896;2023-03-21T18:01:32;96152.00;;;14.50
33267;BMP180;19638;49.080;11.896;2023-03-21T18:05:38;96143.00;;;14.40
33267;BMP180;19638;49.080;11.896;2023-03-21T18:09:43;96147.00;;;14.20
33267;BMP180;19638;49.080;11.896;2023-03-21T18:13:47;96145.00;;;14.10
33267;BMP180;19638;49.080;11.896;2023-03-21T18:17:52;96147.00;;;13.90
33267;BMP180;19638;49.080;11.896;2023-03-21T18:21:55;96147.00;;;13.80
33267;BMP180;19638;49.080;11.896;2023-03-21T18:26:00;96157.00;;;13.70
33267;BMP180;19638;49.080;11.896;2023-03-21T18:30:07;96147.00;;;13.60
33267;BMP180;19638;49.080;11.896;2023-03-21T18:34:32;96157.00;;;13.50
33267;BMP180;19638;49.080;11.896;2023-03-21T18:38:36;96152.00;;;13.40
33267;BMP180;19638;49.080;11.896;2023-03-21T18:42:44;96152.00;;;13.40
33267;BMP180;19638;49.080;11.896;2023-03-21T18:47:07;96148.00;;;13.20
33267;BMP180;19638;49.080;11.896;2023-03-21T18:51:11;96153.00;;;13.10
33267;BMP180;19638;49.080;11.896;2023-03-21T18:55:16;96156.00;;;12.80
33267;BMP180;19638;49.080;11.896;2023-03-21T18:59:33;96146.00;;;12.50
33267;BMP180;19638;49.080;11.896;2023-03-21T19:03:38;96157.00;;;12.40
33267;BMP180;19638;49.080;11.896;2023-03-21T19:07:44;96159.00;;;12.30
33267;BMP180;19638;49.080;11.896;2023-03-21T19:11:48;96160.00;;;12.40
33267;BMP180;19638;49.080;11.896;2023-03-21T19:15:54;96163.00;;;12.40
33267;BMP180;19638;49.080;11.896;2023-03-21T19:19:58;96164.00;;;12.50
33267;BMP180;19638;49.080;11.896;2023-03-21T19:24:06;96174.00;;;12.60
33267;BMP180;19638;49.080;11.896;2023-03-21T19:28:28;96168.00;;;12.60
33267;BMP180;19638;49.080;11.896;2023-03-21T19:32:33;96172.00;;;12.60
33267;BMP180;19638;49.080;11.896;2023-03-21T19:36:37;96169.00;;;12.70
33267;BMP180;19638;49.080;11.896;2023-03-21T19:40:49;96163.00;;;12.60
33267;BMP180;19638;49.080;11.896;2023-03-21T19:44:52;96166.00;;;12.50
33267;BMP180;19638;49.080;11.896;2023-03-21T19:48:57;96159.00;;;12.50
33267;BMP180;19638;49.080;11.896;2023-03-21T19:53:04;96145.00;;;12.40
33267;BMP180;19638;49.080;11.896;2023-03-21T19:57:07;96151.00;;;12.30
33267;BMP180;19638;49.080;11.896;2023-03-21T20:01:11;96142.00;;;12.20
33267;BMP180;19638;49.080;11.896;2023-03-21T20:05:16;96146.00;;;12.10
33267;BMP180;19638;49.080;11.896;2023-03-21T20:09:28;96158.00;;;12.00
33267;BMP180;19638;49.080;11.896;2023-03-21T20:13:51;96163.00;;;11.90
33267;BMP180;19638;49.080;11.896;2023-03-21T20:17:55;96155.00;;;11.80
33267;BMP180;19638;49.080;11.896;2023-03-21T20:21:59;96159.00;;;11.70
33267;BMP180;19638;49.080;11.896;2023-03-21T20:26:06;96155.00;;;11.60
33267;BMP180;19638;49.080;11.896;2023-03-21T20:30:14;96159.00;;;11.60
33267;BMP180;19638;49.080;11.896;2023-03-21T20:34:20;96153.00;;;11.50
33267;BMP180;19638;49.080;11.896;2023-03-21T20:38:25;96161.00;;;11.50
33267;BMP180;19638;49.080;11.896;2023-03-21T20:42:28;96166.00;;;11.40
33267;BMP180;19638;49.080;11.896;2023-03-21T20:46:36;96162.00;;;11.30
33267;BMP180;19638;49.080;11.896;2023-03-21T20:50:39;96148.00;;;11.10
33267;BMP180;19638;49.080;11.896;2023-03-21T20:54:44;96146.00;;;11.10
33267;BMP180;19638;49.080;11.896;2023-03-21T20:58:49;96157.00;;;10.90
33267;BMP180;19638;49.080;11.896;2023-03-21T21:03:12;96152.00;;;10.80
33267;BMP180;19638;49.080;11.896;2023-03-21T21:07:17;96155.00;;;10.80
33267;BMP180;19638;49.080;11.896;2023-03-21T21:11:23;96156.00;;;10.70
33267;BMP180;19638;49.080;11.896;2023-03-21T21:15:48;96166.00;;;10.70
33267;BMP180;19638;49.080;11.896;2023-03-21T21:19:52;96160.00;;;10.60
33267;BMP180;19638;49.080;11.896;2023-03-21T21:23:57;96165.00;;;10.70
33267;BMP180;19638;49.080;11.896;2023-03-21T21:28:04;96161.00;;;10.70
33267;BMP180;19638;49.080;11.896;2023-03-21T21:32:12;96154.00;;;10.80
33267;BMP180;19638;49.080;11.896;2023-03-21T21:36:17;96157.00;;;10.90
33267;BMP180;19638;49.080;11.896;2023-03-21T21:40:23;96153.00;;;11.00
33267;BMP180;19638;49.080;11.896;2023-03-21T21:44:29;96145.00;;;11.00
33267;BMP180;19638;49.080;11.896;2023-03-21T21:48:33;96155.00;;;11.00
33267;BMP180;19638;49.080;11.896;2023-03-21T21:52:37;96155.00;;;10.90
33267;BMP180;19638;49.080;11.896;2023-03-21T21:56:44;96149.00;;;10.90
33267;BMP180;19638;49.080;11.896;2023-03-21T22:00:57;96137.00;;;10.90
33267;BMP180;19638;49.080;11.896;2023-03-21T22:05:00;96138.00;;;10.80
33267;BMP180;19638;49.080;11.896;2023-03-21T22:09:03;96130.00;;;10.80
33267;BMP180;19638;49.080;11.896;2023-03-21T22:13:07;96140.00;;;10.80
33267;BMP180;19638;49.080;11.896;2023-03-21T22:17:15;96135.00;;;10.80
33267;BMP180;19638;49.080;11.896;2023-03-21T22:21:19;96138.00;;;10.80
33267;BMP180;19638;49.080;11.896;2023-03-21T22:25:23;96128.00;;;10.80
33267;BMP180;19638;49.080;11.896;2023-03-21T22:29:26;96129.00;;;10.90
33267;BMP180;19638;49.080;11.896;2023-03-21T22:33:31;96137.00;;;11.00
33267;BMP180;19638;49.080;11.896;2023-03-21T22:37:36;96139.00;;;11.10
33267;BMP180;19638;49.080;11.896;2023-03-21T22:41:40;96134.00;;;11.10
33267;BMP180;19638;49.080;11.896;2023-03-21T22:45:43;96139.00;;;11.10
33267;BMP180;19638;49.080;11.896;2023-03-21T22:49:49;96137.00;;;11.00
33267;BMP180;19638;49.080;11.896;2023-03-21T22:53:52;96147.00;;;11.00
33267;BMP180;19638;49.080;11.896;2023-03-21T22:57:55;96151.00;;;10.90
33267;BMP180;19638;49.080;11.896;2023-03-21T23:01:59;96149.00;;;10.90
33267;BMP180;19638;49.080;11.896;2023-03-21T23:06:06;96138.00;;;10.80
33267;BMP180;19638;49.080;11.896;2023-03-21T23:10:10;96137.00;;;10.80
33267;BMP180;19638;49.080;11.896;2023-03-21T23:14:14;96130.00;;;10.70
33267;BMP180;19638;49.080;11.896;2023-03-21T23:18:17;96122.00;;;10.70
33267;BMP180;19638;49.080;11.896;2023-03-21T23:22:24;96129.00;;;10.70
33267;BMP180;19638;49.080;11.896;2023-03-21T23:26:30;96137.00;;;10.60
33267;BMP180;19638;49.080;11.896;2023-03-21T23:30:36;96137.00;;;10.60
33267;BMP180;19638;49.080;11.896;2023-03-21T23:34:40;96139.00;;;10.50
33267;BMP180;19638;49.080;11.896;2023-03-21T23:38:45;96137.00;;;10.50
33267;BMP180;19638;49.080;11.896;2023-03-21T23:42:51;96139.00;;;10.40